createdAt,value
2022-12-01T00:01:18.419Z,21.93
2022-12-01T00:03:45.964Z,24.50
2022-12-01T00:06:16.286Z,22.07
2022-12-01T00:09:06.402Z,22.40
2022-12-01T00:11:35.684Z,25.10
2022-12-01T00:14:03.552Z,24.40
2022-12-01T00:16:31.796Z,22.93
2022-12-01T00:18:59.710Z,22.73
2022-12-01T00:21:28.464Z,24.07
2022-12-01T00:23:58.058Z,22.13
2022-12-01T00:26:26.986Z,22.53
2022-12-01T00:28:57.926Z,23.83
2022-12-01T00:31:26.333Z,23.17
2022-12-01T00:33:53.995Z,22.83
2022-12-01T00:36:21.871Z,22.30
2022-12-01T00:38:53.089Z,22.83
2022-12-01T00:41:20.941Z,22.60
2022-12-01T00:43:48.508Z,22.87
2022-12-01T00:46:17.760Z,23.60
2022-12-01T00:48:45.329Z,23.40
2022-12-01T00:51:12.851Z,21.87
2022-12-01T00:53:40.380Z,22.17
2022-12-01T00:56:08.447Z,21.53
2022-12-01T00:58:36.141Z,22.97
2022-12-01T01:01:04.285Z,22.63
2022-12-01T01:03:34.139Z,23.17
2022-12-01T01:06:05.828Z,24.37
2022-12-01T01:08:33.478Z,24.43
2022-12-01T01:11:02.326Z,23.63
2022-12-01T01:13:30.939Z,23.37
2022-12-01T01:16:00.501Z,24.67
2022-12-01T01:18:31.463Z,24.97
2022-12-01T01:21:02.409Z,23.90
2022-12-01T01:23:32.558Z,22.60
2022-12-01T01:26:03.275Z,21.80
2022-12-01T01:28:32.299Z,21.77
2022-12-01T01:31:00.015Z,23.53
2022-12-01T01:33:27.643Z,23.20
2022-12-01T01:35:55.163Z,23.53
2022-12-01T01:38:24.028Z,22.63
2022-12-01T01:40:51.568Z,23.27
2022-12-01T01:43:41.209Z,23.27
2022-12-01T01:46:11.003Z,23.53
2022-12-01T01:48:41.300Z,23.77
2022-12-01T01:51:10.035Z,24.37
2022-12-01T01:53:39.078Z,25.50
2022-12-01T01:56:09.402Z,26.07
2022-12-01T01:58:39.088Z,30.10
2022-12-01T02:01:07.826Z,32.70
2022-12-01T02:03:38.008Z,31.93
2022-12-01T02:06:07.313Z,32.90
2022-12-01T02:08:38.091Z,33.10
2022-12-01T02:11:50.881Z,33.87
2022-12-01T02:14:34.572Z,35.33
2022-12-01T02:17:07.133Z,35.07
2022-12-01T02:19:55.228Z,34.70
2022-12-01T02:22:31.046Z,33.27
2022-12-01T02:25:22.104Z,31.67
2022-12-01T02:28:15.721Z,33.50
2022-12-01T02:30:48.819Z,30.70
2022-12-01T02:33:24.133Z,29.40
2022-12-01T02:36:01.665Z,28.43
2022-12-01T02:38:32.239Z,30.57
2022-12-01T02:41:07.363Z,29.63
2022-12-01T02:43:43.503Z,31.53
2022-12-01T02:46:16.612Z,34.13
2022-12-01T02:48:48.336Z,36.93
2022-12-01T02:51:21.462Z,30.27
2022-12-01T02:53:49.845Z,31.73
2022-12-01T02:56:21.933Z,30.80
2022-12-01T02:58:49.490Z,33.13
2022-12-01T03:01:28.686Z,35.13
2022-12-01T03:04:06.587Z,29.40
2022-12-01T03:06:47.104Z,36.80
2022-12-01T03:09:25.356Z,33.93
2022-12-01T03:12:03.417Z,33.43
2022-12-01T03:14:39.862Z,30.67
2022-12-01T03:17:15.408Z,31.73
2022-12-01T03:19:46.659Z,31.90
2022-12-01T03:22:18.994Z,31.23
2022-12-01T03:24:50.316Z,30.67
2022-12-01T03:27:22.760Z,27.60
2022-12-01T03:29:54.596Z,30.93
2022-12-01T03:32:31.415Z,36.40
2022-12-01T03:35:04.697Z,40.23
2022-12-01T03:37:37.606Z,36.33
2022-12-01T03:40:09.772Z,37.40
2022-12-01T03:42:42.051Z,30.53
2022-12-01T03:45:16.961Z,37.37
2022-12-01T03:47:46.840Z,39.87
2022-12-01T03:50:15.160Z,35.43
2022-12-01T03:52:51.566Z,35.73
2022-12-01T03:55:25.102Z,29.50
2022-12-01T03:57:58.060Z,31.43
2022-12-01T04:00:26.692Z,37.40
2022-12-01T04:02:57.860Z,32.50
2022-12-01T04:05:26.044Z,38.87
2022-12-01T04:07:54.288Z,37.07
2022-12-01T04:10:21.892Z,38.43
2022-12-01T04:12:48.452Z,34.70
2022-12-01T04:15:16.712Z,31.97
2022-12-01T04:17:45.517Z,29.67
2022-12-01T04:20:15.925Z,25.30
2022-12-01T04:22:43.520Z,27.93
2022-12-01T04:25:11.679Z,28.17
2022-12-01T04:27:39.308Z,30.47
2022-12-01T04:30:08.968Z,28.77
2022-12-01T04:32:39.617Z,30.00
2022-12-01T04:35:07.732Z,28.70
2022-12-01T04:37:36.973Z,30.10
2022-12-01T04:40:05.729Z,30.13
2022-12-01T04:42:33.347Z,34.67
2022-12-01T04:45:00.899Z,32.40
2022-12-01T04:47:28.431Z,31.60
2022-12-01T04:49:55.947Z,30.60
2022-12-01T04:52:23.471Z,32.57
2022-12-01T04:54:52.352Z,33.50
2022-12-01T04:57:19.910Z,32.10
2022-12-01T04:59:47.789Z,29.87
2022-12-01T05:02:15.756Z,32.23
2022-12-01T05:04:47.904Z,32.10
2022-12-01T05:07:15.473Z,33.80
2022-12-01T05:09:43.115Z,35.40
2022-12-01T05:12:11.980Z,32.40
2022-12-01T05:14:39.492Z,36.00
2022-12-01T05:17:07.014Z,35.00
2022-12-01T05:19:52.371Z,33.90
2022-12-01T05:22:31.463Z,36.23
2022-12-01T05:25:07.863Z,31.70
2022-12-01T05:27:36.776Z,34.17
2022-12-01T05:30:05.239Z,35.13
2022-12-01T05:32:32.799Z,33.93
2022-12-01T05:35:00.329Z,31.80
2022-12-01T05:37:32.140Z,32.47
2022-12-01T05:39:59.684Z,30.47
2022-12-01T05:42:27.320Z,29.53
2022-12-01T05:44:56.212Z,33.57
2022-12-01T05:47:23.847Z,32.73
2022-12-01T05:49:51.612Z,34.87
2022-12-01T05:52:19.253Z,38.80
2022-12-01T05:54:46.769Z,37.50
2022-12-01T05:57:17.143Z,42.27
2022-12-01T05:59:44.658Z,34.80
2022-12-01T06:02:13.593Z,39.53
2022-12-01T06:04:41.120Z,35.70
2022-12-01T06:07:08.652Z,32.80
2022-12-01T06:09:36.275Z,36.83
2022-12-01T06:12:03.915Z,37.00
2022-12-01T06:14:31.475Z,33.83
2022-12-01T06:16:59.063Z,33.37
2022-12-01T06:19:27.954Z,37.80
2022-12-01T06:21:55.476Z,35.63
2022-12-01T06:24:23.011Z,34.30
2022-12-01T06:26:50.864Z,34.73
2022-12-01T06:29:18.404Z,32.47
2022-12-01T06:31:45.960Z,34.27
2022-12-01T06:34:13.687Z,34.07
2022-12-01T06:36:42.588Z,35.10
2022-12-01T06:39:11.004Z,39.73
2022-12-01T06:41:39.266Z,37.97
2022-12-01T06:44:06.968Z,37.67
2022-12-01T06:46:34.569Z,37.63
2022-12-01T06:49:02.128Z,38.33
2022-12-01T06:51:30.422Z,37.13
2022-12-01T06:54:05.083Z,37.40
2022-12-01T06:56:33.136Z,37.40
2022-12-01T06:59:00.983Z,37.20
2022-12-01T07:01:29.240Z,32.80
2022-12-01T07:03:56.798Z,37.63
2022-12-01T07:06:24.330Z,33.63
2022-12-01T07:08:51.845Z,38.00
2022-12-01T07:11:20.716Z,36.03
2022-12-01T07:13:49.491Z,40.30
2022-12-01T07:16:17.286Z,33.37
2022-12-01T07:18:45.103Z,34.20
2022-12-01T07:21:14.736Z,34.77
2022-12-01T07:23:42.516Z,36.23
2022-12-01T07:26:12.534Z,33.37
2022-12-01T07:28:41.774Z,34.63
2022-12-01T07:31:13.851Z,36.80
2022-12-01T07:33:41.454Z,37.63
2022-12-01T07:36:09.811Z,40.13
2022-12-01T07:38:37.467Z,27.53
2022-12-01T07:41:06.164Z,27.07
2022-12-01T07:43:34.282Z,41.63
2022-12-01T07:46:08.645Z,33.70
2022-12-01T07:48:37.143Z,30.20
2022-12-01T07:51:05.470Z,43.50
2022-12-01T07:53:33.371Z,38.13
2022-12-01T07:56:05.724Z,30.73
2022-12-01T07:58:35.019Z,35.70
2022-12-01T08:01:08.168Z,38.00
2022-12-01T08:03:36.708Z,32.53
2022-12-01T08:06:04.989Z,31.50
2022-12-01T08:08:33.524Z,28.50
2022-12-01T08:11:02.931Z,36.47
2022-12-01T08:13:30.826Z,26.07
2022-12-01T08:15:58.382Z,27.80
2022-12-01T08:18:27.279Z,27.57
2022-12-01T08:20:58.204Z,29.80
2022-12-01T08:23:25.923Z,25.33
2022-12-01T08:25:53.934Z,25.60
2022-12-01T08:28:21.929Z,26.70
2022-12-01T08:30:49.539Z,29.47
2022-12-01T08:33:17.095Z,36.07
2022-12-01T08:35:46.527Z,30.93
2022-12-01T08:38:14.048Z,31.97
2022-12-01T08:40:41.552Z,21.83
2022-12-01T08:43:12.359Z,24.47
2022-12-01T08:45:46.408Z,30.93
2022-12-01T08:48:13.956Z,28.30
2022-12-01T08:50:41.472Z,20.90
2022-12-01T08:53:10.334Z,30.67
2022-12-01T08:55:37.851Z,37.83
2022-12-01T08:58:05.384Z,18.90
2022-12-01T09:00:32.921Z,20.63
2022-12-01T09:03:01.603Z,19.67
2022-12-01T09:05:29.155Z,19.83
2022-12-01T09:08:10.655Z,22.67
2022-12-01T09:10:39.582Z,22.30
2022-12-01T09:13:07.115Z,26.20
2022-12-01T09:15:34.630Z,22.73
2022-12-01T09:18:02.185Z,43.60
2022-12-01T09:20:29.732Z,14.03
2022-12-01T09:22:57.776Z,16.37
2022-12-01T09:25:25.796Z,17.10
2022-12-01T09:27:54.672Z,17.57
2022-12-01T09:30:22.225Z,18.53
2022-12-01T09:32:49.761Z,17.50
2022-12-01T09:35:22.021Z,16.47
2022-12-01T09:37:50.840Z,16.70
2022-12-01T09:40:18.494Z,17.20
2022-12-01T09:42:47.401Z,15.67
2022-12-01T09:45:25.777Z,48.97
2022-12-01T09:47:56.466Z,80.40
2022-12-01T09:50:26.148Z,74.57
2022-12-01T09:52:58.473Z,37.33
2022-12-01T09:55:27.148Z,46.87
2022-12-01T09:57:56.742Z,46.03
2022-12-01T10:00:27.678Z,16.20
2022-12-01T10:03:01.357Z,18.10
2022-12-01T10:05:34.832Z,15.07
2022-12-01T10:08:05.049Z,14.30
2022-12-01T10:10:37.367Z,17.80
2022-12-01T10:13:16.392Z,16.63
2022-12-01T10:15:51.374Z,20.37
2022-12-01T10:18:41.434Z,17.87
2022-12-01T10:21:19.997Z,17.73
2022-12-01T10:24:03.427Z,19.73
2022-12-01T10:26:35.986Z,14.00
2022-12-01T10:29:12.497Z,13.93
2022-12-01T10:31:51.322Z,14.90
2022-12-01T10:34:23.160Z,18.03
2022-12-01T10:36:50.995Z,16.43
2022-12-01T10:39:23.838Z,14.87
2022-12-01T10:41:52.622Z,13.27
2022-12-01T10:44:22.091Z,16.07
2022-12-01T10:46:54.989Z,15.63
2022-12-01T10:49:36.561Z,15.77
2022-12-01T10:52:04.190Z,15.17
2022-12-01T10:54:36.105Z,16.93
2022-12-01T10:57:04.258Z,14.03
2022-12-01T10:59:36.432Z,13.57
2022-12-01T11:02:15.230Z,13.60
2022-12-01T11:04:47.021Z,16.00
2022-12-01T11:07:21.398Z,15.20
2022-12-01T11:10:00.865Z,15.00
2022-12-01T11:12:28.419Z,13.87
2022-12-01T11:14:57.341Z,17.13
2022-12-01T11:17:32.245Z,17.73
2022-12-01T11:20:00.007Z,18.13
2022-12-01T11:22:30.849Z,17.03
2022-12-01T11:25:01.554Z,20.70
2022-12-01T11:27:32.735Z,17.60
2022-12-01T11:30:04.780Z,19.07
2022-12-01T11:32:35.822Z,15.90
2022-12-01T11:35:06.945Z,14.50
2022-12-01T11:37:38.892Z,16.43
2022-12-01T11:40:10.268Z,18.40
2022-12-01T11:42:40.176Z,14.40
2022-12-01T11:45:19.435Z,15.80
2022-12-01T11:48:01.871Z,16.97
2022-12-01T11:50:31.162Z,17.83
2022-12-01T11:52:58.959Z,16.20
2022-12-01T11:55:28.299Z,14.30
2022-12-01T11:57:58.319Z,15.43
2022-12-01T12:00:28.255Z,14.33
2022-12-01T12:03:20.319Z,14.00
2022-12-01T12:09:16.199Z,15.53
2022-12-01T12:11:53.950Z,13.93
2022-12-01T12:14:40.988Z,15.37
2022-12-01T12:17:31.909Z,15.83
2022-12-01T12:20:22.053Z,15.60
2022-12-01T12:22:58.561Z,14.00
2022-12-01T12:25:35.864Z,14.27
2022-12-01T12:28:18.599Z,15.13
2022-12-01T12:30:54.207Z,14.90
2022-12-01T12:33:39.187Z,15.00
2022-12-01T12:36:17.460Z,16.10
2022-12-01T12:38:55.621Z,15.37
2022-12-01T12:41:33.695Z,16.33
2022-12-01T12:44:16.584Z,16.40
2022-12-01T12:46:53.376Z,15.40
2022-12-01T12:49:37.268Z,14.90
2022-12-01T12:52:11.371Z,14.93
2022-12-01T12:54:46.980Z,13.90
2022-12-01T12:57:24.040Z,15.20
2022-12-01T12:59:57.752Z,14.90
2022-12-01T13:02:32.308Z,16.43
2022-12-01T13:05:06.132Z,16.90
2022-12-01T13:07:41.090Z,18.10
2022-12-01T13:10:17.236Z,17.77
2022-12-01T13:12:54.521Z,15.00
2022-12-01T13:15:22.341Z,15.80
2022-12-01T13:17:53.749Z,19.23
2022-12-01T13:20:27.506Z,14.13
2022-12-01T13:22:59.226Z,18.33
2022-12-01T13:25:30.514Z,16.60
2022-12-01T13:28:01.009Z,17.03
2022-12-01T13:30:28.864Z,15.57
2022-12-01T13:33:02.276Z,15.50
2022-12-01T13:35:32.192Z,15.20
2022-12-01T13:41:12.722Z,14.10
2022-12-01T13:43:52.996Z,15.07
2022-12-01T13:46:23.589Z,13.67
2022-12-01T13:48:52.687Z,15.30
2022-12-01T13:51:20.228Z,14.63
2022-12-01T13:53:58.099Z,14.50
2022-12-01T13:56:39.257Z,13.93
2022-12-01T13:59:53.027Z,13.83
2022-12-01T14:02:22.462Z,13.33
2022-12-01T14:04:50.323Z,13.47
2022-12-01T14:07:37.131Z,13.00
2022-12-01T14:10:24.138Z,13.30
2022-12-01T14:12:55.149Z,12.53
2022-12-01T14:15:30.610Z,13.17
2022-12-01T14:18:05.398Z,14.17
2022-12-01T14:20:37.267Z,12.53
2022-12-01T14:23:17.843Z,13.17
2022-12-01T14:25:59.970Z,12.10
2022-12-01T14:29:10.636Z,11.80
2022-12-01T14:32:04.754Z,12.00
2022-12-01T14:34:34.198Z,12.73
2022-12-01T14:37:07.750Z,11.30
2022-12-01T14:39:37.811Z,11.97
2022-12-01T14:42:42.587Z,11.83
2022-12-01T14:45:16.213Z,11.70
2022-12-01T14:47:47.859Z,11.17
2022-12-01T14:50:22.584Z,11.80
2022-12-01T14:52:56.898Z,11.73
2022-12-01T14:55:27.895Z,12.57
2022-12-01T14:58:04.932Z,11.50
2022-12-01T15:00:37.493Z,10.90
2022-12-01T15:03:09.476Z,11.70
2022-12-01T15:05:41.211Z,11.77
2022-12-01T15:08:41.053Z,11.23
2022-12-01T15:11:11.231Z,10.77
2022-12-01T15:13:49.082Z,10.67
2022-12-01T15:16:20.547Z,11.07
2022-12-01T15:18:48.378Z,11.47
2022-12-01T15:21:20.291Z,11.20
2022-12-01T15:23:59.109Z,11.80
2022-12-01T15:26:30.113Z,9.87
2022-12-01T15:29:15.712Z,11.77
2022-12-01T15:31:45.745Z,11.53
2022-12-01T15:34:16.495Z,12.23
2022-12-01T15:36:45.053Z,13.10
2022-12-01T15:39:16.321Z,13.30
2022-12-01T15:41:45.014Z,12.77
2022-12-01T15:44:21.303Z,12.63
2022-12-01T15:46:50.241Z,14.83
2022-12-01T15:49:19.795Z,15.30
2022-12-01T15:51:48.857Z,15.57
2022-12-01T15:54:20.393Z,15.40
2022-12-01T15:56:56.889Z,15.17
2022-12-01T15:59:32.048Z,15.27
2022-12-01T16:02:07.816Z,13.87
2022-12-01T16:04:35.426Z,16.07
2022-12-01T16:07:07.817Z,15.57
2022-12-01T16:09:37.385Z,14.70
2022-12-01T16:12:22.893Z,15.43
2022-12-01T16:14:54.234Z,17.57
2022-12-01T16:17:24.036Z,16.30
2022-12-01T16:20:16.231Z,16.20
2022-12-01T16:22:46.100Z,16.93
2022-12-01T16:25:19.063Z,15.00
2022-12-01T16:27:52.970Z,17.47
2022-12-01T16:30:22.423Z,12.47
2022-12-01T16:32:51.530Z,18.27
2022-12-01T16:35:26.362Z,16.17
2022-12-01T16:37:54.165Z,16.10
2022-12-01T16:40:21.875Z,11.97
2022-12-01T16:42:49.876Z,17.90
2022-12-01T16:45:19.244Z,15.60
2022-12-01T16:47:48.722Z,18.27
2022-12-01T16:50:21.541Z,15.27
2022-12-01T16:52:49.288Z,18.67
2022-12-01T16:55:26.425Z,17.40
2022-12-01T16:57:55.241Z,19.17
2022-12-01T17:00:23.248Z,13.27
2022-12-01T17:02:53.571Z,14.93
2022-12-01T17:05:22.962Z,18.30
2022-12-01T17:07:51.104Z,16.10
2022-12-01T17:10:18.925Z,19.23
2022-12-01T17:12:46.438Z,17.63
2022-12-01T17:15:14.414Z,15.53
2022-12-01T17:17:41.955Z,20.00
2022-12-01T17:20:10.203Z,17.70
2022-12-01T17:22:39.268Z,20.70
2022-12-01T17:25:09.496Z,20.20
2022-12-01T17:27:37.136Z,18.67
2022-12-01T17:30:05.491Z,21.17
2022-12-01T17:32:39.164Z,20.70
2022-12-01T17:35:07.700Z,18.40
2022-12-01T17:37:36.885Z,24.27
2022-12-01T17:40:07.154Z,27.17
2022-12-01T17:42:35.179Z,36.43
2022-12-01T17:45:03.040Z,35.07
2022-12-01T17:47:30.543Z,31.83
2022-12-01T17:49:58.088Z,28.80
2022-12-01T17:52:28.610Z,26.60
2022-12-01T17:54:56.790Z,24.80
2022-12-01T17:57:25.691Z,25.47
2022-12-01T17:59:53.311Z,22.90
2022-12-01T18:02:20.920Z,22.77
2022-12-01T18:04:49.007Z,22.93
2022-12-01T18:07:16.940Z,20.77
2022-12-01T18:09:44.594Z,21.53
2022-12-01T18:12:12.421Z,25.53
2022-12-01T18:14:41.303Z,26.50
2022-12-01T18:17:08.821Z,24.80
2022-12-01T18:19:36.475Z,31.17
2022-12-01T18:22:04.057Z,25.63
2022-12-01T18:24:31.641Z,23.70
2022-12-01T18:26:59.159Z,26.93
2022-12-01T18:29:28.519Z,26.63
2022-12-01T18:31:58.187Z,35.90
2022-12-01T18:34:26.544Z,31.67
2022-12-01T18:36:54.097Z,29.03
2022-12-01T18:39:21.693Z,25.90
2022-12-01T18:41:49.242Z,27.03
2022-12-01T18:44:16.806Z,35.23
2022-12-01T18:46:44.392Z,25.40
2022-12-01T18:49:13.806Z,34.03
2022-12-01T18:51:42.063Z,24.70
2022-12-01T18:54:13.958Z,26.87
2022-12-01T18:56:41.667Z,21.70
2022-12-01T18:59:11.663Z,20.73
2022-12-01T19:01:40.703Z,23.50
2022-12-01T19:04:09.849Z,22.70
2022-12-01T19:06:39.974Z,21.07
2022-12-01T19:09:09.318Z,20.80
2022-12-01T19:11:38.110Z,23.00
2022-12-01T19:14:05.774Z,14.80
2022-12-01T19:16:34.277Z,16.37
2022-12-01T19:19:02.425Z,24.17
2022-12-01T19:21:29.980Z,19.80
2022-12-01T19:23:59.055Z,25.90
2022-12-01T19:26:26.608Z,27.43
2022-12-01T19:28:54.199Z,19.03
2022-12-01T19:31:24.859Z,24.57
2022-12-01T19:33:53.749Z,20.57
2022-12-01T19:36:23.476Z,30.23
2022-12-01T19:38:51.727Z,32.40
2022-12-01T19:41:24.081Z,31.27
2022-12-01T19:43:52.650Z,33.03
2022-12-01T19:46:21.792Z,33.83
2022-12-01T19:48:54.739Z,33.83
2022-12-01T19:51:24.459Z,32.93
2022-12-01T19:53:52.783Z,31.17
2022-12-01T19:56:22.161Z,36.10
2022-12-01T19:58:49.837Z,30.40
2022-12-01T20:01:19.262Z,36.07
2022-12-01T20:03:48.437Z,23.27
2022-12-01T20:06:21.122Z,38.63
2022-12-01T20:08:49.265Z,31.00
2022-12-01T20:11:17.088Z,34.77
2022-12-01T20:13:47.155Z,28.77
2022-12-01T20:16:16.864Z,26.17
2022-12-01T20:18:44.792Z,24.70
2022-12-01T20:21:16.499Z,19.53
2022-12-01T20:23:44.934Z,22.57
2022-12-01T20:26:13.520Z,25.73
2022-12-01T20:28:41.473Z,33.07
2022-12-01T20:31:12.682Z,34.17
2022-12-01T20:33:40.723Z,31.30
2022-12-01T20:36:09.472Z,28.00
2022-12-01T20:38:37.906Z,31.27
2022-12-01T20:41:06.592Z,30.93
2022-12-01T20:43:36.704Z,22.13
2022-12-01T20:46:05.403Z,25.30
2022-12-01T20:48:34.512Z,26.33
2022-12-01T20:51:02.444Z,26.47
2022-12-01T20:53:30.162Z,25.87
2022-12-01T20:55:57.803Z,20.23
2022-12-01T20:58:25.362Z,24.87
2022-12-01T21:00:52.921Z,22.30
2022-12-01T21:03:20.442Z,24.67
2022-12-01T21:05:49.435Z,25.93
2022-12-01T21:08:17.306Z,22.70
2022-12-01T21:10:46.323Z,26.03
2022-12-01T21:13:36.823Z,31.13
2022-12-01T21:16:12.393Z,24.23
2022-12-01T21:18:49.166Z,26.63
2022-12-01T21:21:24.530Z,24.23
2022-12-01T21:24:03.898Z,21.63
2022-12-01T21:26:31.427Z,39.43
2022-12-01T21:29:00.960Z,31.07
2022-12-01T21:31:29.028Z,28.73
2022-12-01T21:33:57.171Z,29.27
2022-12-01T21:36:29.800Z,29.30
2022-12-01T21:39:06.415Z,28.53
2022-12-01T21:41:35.099Z,29.00
2022-12-01T21:44:12.324Z,27.93
2022-12-01T21:46:41.361Z,29.87
2022-12-01T21:49:14.771Z,31.80
2022-12-01T21:51:43.612Z,23.13
2022-12-01T21:54:14.719Z,40.27
2022-12-01T21:56:42.308Z,24.47
2022-12-01T21:59:16.322Z,28.43
2022-12-01T22:01:43.926Z,39.60
2022-12-01T22:04:16.722Z,28.97
2022-12-01T22:06:48.926Z,36.83
2022-12-01T22:09:23.316Z,37.50
2022-12-01T22:11:54.064Z,30.50
2022-12-01T22:14:24.107Z,39.20
2022-12-01T22:16:57.067Z,40.57
2022-12-01T22:19:28.761Z,37.10
2022-12-01T22:22:02.608Z,42.70
2022-12-01T22:24:38.793Z,33.73
2022-12-01T22:27:31.951Z,42.87
2022-12-01T22:30:02.781Z,39.47
2022-12-01T22:32:39.032Z,35.50
2022-12-01T22:35:21.720Z,37.57
2022-12-01T22:37:52.659Z,41.73
2022-12-01T22:40:40.469Z,35.93
2022-12-01T22:43:41.803Z,29.40
2022-12-01T22:46:25.372Z,36.43
2022-12-01T22:48:55.188Z,40.17
2022-12-01T22:51:42.732Z,33.93
2022-12-01T22:54:38.464Z,31.77
2022-12-01T22:57:26.680Z,38.10
2022-12-01T22:59:55.088Z,37.47
2022-12-01T23:02:24.686Z,35.60
2022-12-01T23:04:56.525Z,28.67
2022-12-01T23:07:29.230Z,31.87
2022-12-01T23:10:03.256Z,33.13
2022-12-01T23:12:32.859Z,36.40
2022-12-01T23:15:08.650Z,35.03
2022-12-01T23:17:38.905Z,35.70
2022-12-01T23:20:23.842Z,35.57
2022-12-01T23:22:53.963Z,39.70
2022-12-01T23:25:23.843Z,34.53
2022-12-01T23:27:53.123Z,34.63
2022-12-01T23:30:22.636Z,37.20
2022-12-01T23:32:58.540Z,36.20
2022-12-01T23:35:26.151Z,35.67
2022-12-01T23:37:54.048Z,36.60
2022-12-01T23:40:30.044Z,32.53
2022-12-01T23:42:59.573Z,34.70
2022-12-01T23:45:28.540Z,36.60
2022-12-01T23:47:57.554Z,40.70
2022-12-01T23:50:27.447Z,35.00
2022-12-01T23:52:55.070Z,36.93
2022-12-01T23:55:28.299Z,36.93
2022-12-01T23:57:56.363Z,36.87
